Time;durP1;ratioP1;P1;durP2;ratioP2;P2;SDS_P1;SDS_P2;PMS_P1;PMS_P2;Temp;Humidity;BMP_temperature;BMP_pressure;BME280_temperature;BME280_humidity;BME280_pressure;Samples;Min_cycle;Max_cycle;Signal;HPM_P1;HPM_P2
2023/01/01 00:01:19;;;;;;;161.40;101.18;;;;;;;;;;5009155;28;20026;-79
2023/01/01 00:03:48;;;;;;;142.48;88.75;;;;;;;;;;5026304;28;20022;-79
2023/01/01 00:06:15;;;;;;;122.80;78.90;;;;;;;;;;5009480;28;20022;-78
2023/01/01 00:08:41;;;;;;;119.35;69.72;;;;;;;;;;5035793;28;20014;-80
2023/01/01 00:11:08;;;;;;;98.75;61.17;;;;;;;;;;5030315;28;20040;-79
2023/01/01 00:13:35;;;;;;;80.55;50.67;;;;;;;;;;5021771;28;20031;-79
2023/01/01 00:16:05;;;;;;;70.50;46.05;;;;;;;;;;5017384;28;20042;-79
2023/01/01 00:18:31;;;;;;;69.18;42.72;;;;;;;;;;5002597;28;20086;-79
2023/01/01 00:21:04;;;;;;;67.68;41.15;;;;;;;;;;5004298;28;20027;-80
2023/01/01 00:23:31;;;;;;;66.55;40.95;;;;;;;;;;5001198;28;20109;-80
2023/01/01 00:25:57;;;;;;;70.20;41.75;;;;;;;;;;5004626;28;20097;-81
2023/01/01 00:28:24;;;;;;;74.43;43.65;;;;;;;;;;5003215;28;20397;-80
2023/01/01 00:30:50;;;;;;;64.88;41.58;;;;;;;;;;5023008;28;20108;-80
2023/01/01 00:33:16;;;;;;;65.28;39.20;;;;;;;;;;5014589;28;20034;-79
2023/01/01 00:35:42;;;;;;;73.70;43.25;;;;;;;;;;5001720;28;20547;-80
2023/01/01 00:38:08;;;;;;;73.07;43.67;;;;;;;;;;5004077;28;20033;-80
2023/01/01 00:40:34;;;;;;;69.22;41.97;;;;;;;;;;5003180;28;20076;-80
2023/01/01 00:43:00;;;;;;;68.55;42.67;;;;;;;;;;5005749;28;20010;-80
2023/01/01 00:45:26;;;;;;;75.57;44.05;;;;;;;;;;5000697;28;20029;-80
2023/01/01 00:47:53;;;;;;;70.53;42.80;;;;;;;;;;5004501;28;20022;-80
2023/01/01 00:50:20;;;;;;;78.70;45.70;;;;;;;;;;5018634;28;20385;-80
2023/01/01 00:52:47;;;;;;;66.45;42.53;;;;;;;;;;5005110;28;20033;-80
2023/01/01 00:55:13;;;;;;;73.15;43.28;;;;;;;;;;5009620;28;20579;-80
2023/01/01 00:57:39;;;;;;;66.78;40.33;;;;;;;;;;5014791;28;20010;-80
2023/01/01 01:00:06;;;;;;;69.95;41.45;;;;;;;;;;5016479;28;20104;-80
2023/01/01 01:02:32;;;;;;;73.95;41.67;;;;;;;;;;5006026;28;20468;-80
2023/01/01 01:04:58;;;;;;;63.97;38.70;;;;;;;;;;5017720;28;20088;-79
2023/01/01 01:07:24;;;;;;;56.22;34.50;;;;;;;;;;5020942;28;20049;-80
2023/01/01 01:09:50;;;;;;;59.40;35.88;;;;;;;;;;5016674;28;20030;-79
2023/01/01 01:12:16;;;;;;;51.90;31.65;;;;;;;;;;5009654;28;20098;-80
2023/01/01 01:14:42;;;;;;;49.97;30.90;;;;;;;;;;5015444;28;20030;-78
2023/01/01 01:17:08;;;;;;;51.97;30.83;;;;;;;;;;5002914;28;20102;-80
2023/01/01 01:19:34;;;;;;;46.33;28.23;;;;;;;;;;5010886;28;20034;-80
2023/01/01 01:22:00;;;;;;;42.40;26.67;;;;;;;;;;5017937;28;20026;-79
2023/01/01 01:24:26;;;;;;;40.58;24.05;;;;;;;;;;5019338;28;20026;-80
2023/01/01 01:26:53;;;;;;;40.28;24.85;;;;;;;;;;5002334;28;20436;-80
2023/01/01 01:29:19;;;;;;;42.83;24.52;;;;;;;;;;5000790;28;20069;-79
2023/01/01 01:31:45;;;;;;;35.85;22.02;;;;;;;;;;5026347;28;20022;-79
2023/01/01 01:34:11;;;;;;;36.70;20.95;;;;;;;;;;5004574;28;20030;-79
2023/01/01 01:36:37;;;;;;;31.83;20.17;;;;;;;;;;5003018;28;20034;-79
2023/01/01 01:39:03;;;;;;;32.28;21.30;;;;;;;;;;4991034;28;20430;-80
2023/01/01 01:41:29;;;;;;;38.85;21.95;;;;;;;;;;5008115;28;20036;-80
2023/01/01 01:43:55;;;;;;;32.72;20.27;;;;;;;;;;5005805;28;20540;-80
2023/01/01 01:46:21;;;;;;;30.67;18.92;;;;;;;;;;4997895;28;20029;-80
2023/01/01 01:48:49;;;;;;;24.40;16.45;;;;;;;;;;5000294;28;20037;-80
2023/01/01 01:51:17;;;;;;;23.95;14.82;;;;;;;;;;5009582;28;20097;-80
2023/01/01 01:53:51;;;;;;;24.60;14.27;;;;;;;;;;4997017;28;20536;-80
2023/01/01 01:56:21;;;;;;;20.08;12.75;;;;;;;;;;4998656;28;20026;-80
2023/01/01 01:58:47;;;;;;;19.55;11.88;;;;;;;;;;4997651;28;20022;-80
2023/01/01 02:01:13;;;;;;;20.30;12.52;;;;;;;;;;4997238;28;20580;-80
2023/01/01 02:03:42;;;;;;;20.52;12.82;;;;;;;;;;4999303;28;20042;-80
2023/01/01 02:06:08;;;;;;;21.65;13.10;;;;;;;;;;4997764;28;20428;-80
2023/01/01 02:08:38;;;;;;;24.08;13.05;;;;;;;;;;4996713;28;20377;-80
2023/01/01 02:11:05;;;;;;;22.35;14.23;;;;;;;;;;4999621;28;20034;-80
2023/01/01 02:13:31;;;;;;;20.38;12.77;;;;;;;;;;5007897;28;20022;-80
2023/01/01 02:16:04;;;;;;;18.55;11.52;;;;;;;;;;5017238;28;20029;-80
2023/01/01 02:18:36;;;;;;;16.13;10.48;;;;;;;;;;4999489;28;20042;-79
2023/01/01 02:21:06;;;;;;;14.15;9.60;;;;;;;;;;4997768;28;20019;-79
2023/01/01 02:23:54;;;;;;;16.73;9.85;;;;;;;;;;5008101;28;20088;-79
2023/01/01 02:26:24;;;;;;;14.63;8.70;;;;;;;;;;5000668;28;20089;-79
2023/01/01 02:29:07;;;;;;;15.02;9.15;;;;;;;;;;4992403;28;20050;-80
2023/01/01 02:31:39;;;;;;;12.85;8.75;;;;;;;;;;4977184;28;20486;-79
2023/01/01 02:34:07;;;;;;;13.48;8.43;;;;;;;;;;4977761;28;20042;-79
2023/01/01 02:36:35;;;;;;;12.73;8.13;;;;;;;;;;4987995;28;20042;-78
2023/01/01 02:39:02;;;;;;;11.25;7.68;;;;;;;;;;5005960;28;20018;-79
2023/01/01 02:41:31;;;;;;;13.18;8.05;;;;;;;;;;5012122;28;20065;-78
2023/01/01 02:43:57;;;;;;;13.07;7.55;;;;;;;;;;5012385;28;20421;-80
2023/01/01 02:46:23;;;;;;;12.27;8.70;;;;;;;;;;5011176;28;20022;-79
2023/01/01 02:48:52;;;;;;;12.07;7.28;;;;;;;;;;5011736;28;20040;-80
2023/01/01 02:51:28;;;;;;;11.15;7.10;;;;;;;;;;4998075;28;20022;-80
2023/01/01 02:53:57;;;;;;;10.40;7.15;;;;;;;;;;5009478;28;20029;-80
2023/01/01 02:56:38;;;;;;;9.82;7.05;;;;;;;;;;5015626;28;20029;-80
2023/01/01 03:02:07;;;;;;;10.32;6.35;;;;;;;;;;5010441;28;20081;-80
2023/01/01 03:04:51;;;;;;;11.55;6.78;;;;;;;;;;4998261;28;20465;-81
2023/01/01 03:07:35;;;;;;;9.10;5.90;;;;;;;;;;4996776;28;20023;-80
2023/01/01 03:10:01;;;;;;;8.52;5.57;;;;;;;;;;5025411;28;20030;-80
2023/01/01 03:12:47;;;;;;;10.38;5.70;;;;;;;;;;4997755;28;20462;-80
2023/01/01 03:15:22;;;;;;;8.63;5.50;;;;;;;;;;4996866;28;20034;-79
2023/01/01 03:17:48;;;;;;;7.88;5.28;;;;;;;;;;4996375;28;20073;-80
2023/01/01 03:20:17;;;;;;;8.48;5.55;;;;;;;;;;4997480;28;20092;-80
2023/01/01 03:22:44;;;;;;;5.88;4.50;;;;;;;;;;4999478;28;20022;-80
2023/01/01 03:25:16;;;;;;;6.38;4.78;;;;;;;;;;5016052;28;20018;-80
2023/01/01 03:27:50;;;;;;;6.28;4.45;;;;;;;;;;5005555;28;20033;-80
2023/01/01 03:30:18;;;;;;;8.32;5.47;;;;;;;;;;4998987;28;20026;-80
2023/01/01 03:33:02;;;;;;;10.68;6.25;;;;;;;;;;4980587;28;20595;-79
2023/01/01 03:35:37;;;;;;;7.45;5.63;;;;;;;;;;4996496;28;20026;-80
2023/01/01 03:38:05;;;;;;;9.80;6.28;;;;;;;;;;4993658;28;20045;-80
2023/01/01 03:40:32;;;;;;;9.63;6.72;;;;;;;;;;4997470;28;20023;-80
2023/01/01 03:43:25;;;;;;;10.07;7.10;;;;;;;;;;5010541;28;20038;-79
2023/01/01 03:45:52;;;;;;;10.18;5.97;;;;;;;;;;4994332;28;20374;-79
2023/01/01 03:48:18;;;;;;;9.88;7.00;;;;;;;;;;5008310;28;20101;-80
2023/01/01 03:50:57;;;;;;;10.45;7.05;;;;;;;;;;4996650;28;20431;-80
2023/01/01 03:53:42;;;;;;;12.52;7.05;;;;;;;;;;5009168;28;20027;-80
2023/01/01 03:56:14;;;;;;;10.50;7.10;;;;;;;;;;4977317;28;20033;-80
2023/01/01 03:58:52;;;;;;;13.27;7.93;;;;;;;;;;5014557;28;20030;-80
2023/01/01 04:01:23;;;;;;;15.32;9.07;;;;;;;;;;5006870;28;20751;-80
2023/01/01 04:03:50;;;;;;;12.48;7.80;;;;;;;;;;4994597;28;20030;-80
2023/01/01 04:06:16;;;;;;;15.27;8.73;;;;;;;;;;4999457;28;20014;-79
2023/01/01 04:08:42;;;;;;;13.43;8.20;;;;;;;;;;5000093;28;20035;-80
2023/01/01 04:13:59;;;;;;;18.23;9.70;;;;;;;;;;5001010;28;20108;-79
2023/01/01 04:16:25;;;;;;;16.65;10.68;;;;;;;;;;5003964;28;20026;-78
2023/01/01 04:18:51;;;;;;;17.25;10.68;;;;;;;;;;5003532;28;20027;-79
2023/01/01 04:21:17;;;;;;;13.32;9.75;;;;;;;;;;5005131;28;20065;-78
2023/01/01 04:23:43;;;;;;;19.50;10.63;;;;;;;;;;5005439;28;20069;-80
2023/01/01 04:26:13;;;;;;;14.30;9.63;;;;;;;;;;5004094;28;20081;-79
2023/01/01 04:28:40;;;;;;;16.42;9.45;;;;;;;;;;5005741;28;20078;-79
2023/01/01 04:31:06;;;;;;;16.67;9.50;;;;;;;;;;5017825;28;20034;-79
2023/01/01 04:33:32;;;;;;;13.70;8.65;;;;;;;;;;5016170;28;20039;-80
2023/01/01 04:36:06;;;;;;;15.05;9.68;;;;;;;;;;5023731;28;20098;-80
2023/01/01 04:38:33;;;;;;;14.43;8.52;;;;;;;;;;5004081;28;20042;-79
2023/01/01 04:40:59;;;;;;;13.50;8.65;;;;;;;;;;5004898;28;20026;-79
2023/01/01 04:43:25;;;;;;;14.45;9.13;;;;;;;;;;5020506;28;20089;-79
2023/01/01 04:46:01;;;;;;;13.55;9.13;;;;;;;;;;5016242;28;20093;-80
2023/01/01 04:48:28;;;;;;;13.77;7.95;;;;;;;;;;5015136;28;20050;-80
2023/01/01 04:50:55;;;;;;;12.77;8.45;;;;;;;;;;4995393;28;20027;-79
2023/01/01 04:53:21;;;;;;;12.98;8.52;;;;;;;;;;4997741;28;20587;-80
2023/01/01 04:55:47;;;;;;;17.40;9.40;;;;;;;;;;4999106;28;20062;-80
2023/01/01 04:58:13;;;;;;;13.20;8.68;;;;;;;;;;4998648;28;20097;-80
2023/01/01 05:00:39;;;;;;;14.10;8.10;;;;;;;;;;4998852;28;20041;-80
2023/01/01 05:03:05;;;;;;;13.05;8.55;;;;;;;;;;5004404;28;20033;-80
2023/01/01 05:05:31;;;;;;;14.80;8.88;;;;;;;;;;5016501;28;20025;-78
2023/01/01 05:07:57;;;;;;;14.55;9.02;;;;;;;;;;4997598;28;20050;-79
2023/01/01 05:10:23;;;;;;;14.77;8.48;;;;;;;;;;5014571;28;20025;-80
2023/01/01 05:12:49;;;;;;;12.02;7.90;;;;;;;;;;5016572;28;20041;-79
2023/01/01 05:15:15;;;;;;;10.15;6.75;;;;;;;;;;5018497;28;20515;-80
2023/01/01 05:17:41;;;;;;;9.38;6.22;;;;;;;;;;5017338;28;20064;-80
2023/01/01 05:20:08;;;;;;;10.68;6.20;;;;;;;;;;5002465;28;20023;-80
2023/01/01 05:22:34;;;;;;;10.68;5.97;;;;;;;;;;5002224;28;20026;-80
2023/01/01 05:25:00;;;;;;;8.38;5.95;;;;;;;;;;4999397;28;20069;-79
2023/01/01 05:27:26;;;;;;;9.18;6.07;;;;;;;;;;4998460;28;20037;-80
2023/01/01 05:29:52;;;;;;;10.00;6.18;;;;;;;;;;4998426;28;20027;-80
2023/01/01 05:32:18;;;;;;;9.98;5.70;;;;;;;;;;5016987;28;20614;-80
2023/01/01 05:34:44;;;;;;;7.22;5.45;;;;;;;;;;4998799;28;20657;-79
2023/01/01 05:37:10;;;;;;;9.43;5.72;;;;;;;;;;4997320;28;20485;-80
2023/01/01 05:39:36;;;;;;;6.40;4.68;;;;;;;;;;5007080;28;20029;-80
2023/01/01 05:42:02;;;;;;;7.88;5.63;;;;;;;;;;5004501;28;20042;-79
2023/01/01 05:44:28;;;;;;;8.52;5.55;;;;;;;;;;4997253;28;20029;-79
2023/01/01 05:46:54;;;;;;;7.65;5.43;;;;;;;;;;4998660;28;20034;-79
2023/01/01 05:49:20;;;;;;;7.38;5.00;;;;;;;;;;5000529;28;20591;-79
2023/01/01 05:51:46;;;;;;;10.60;6.63;;;;;;;;;;4998603;28;20030;-79
2023/01/01 05:54:13;;;;;;;19.88;11.27;;;;;;;;;;4994395;28;20034;-79
2023/01/01 05:56:39;;;;;;;18.27;11.45;;;;;;;;;;4999560;28;20029;-78
2023/01/01 05:59:05;;;;;;;16.15;10.20;;;;;;;;;;5003575;28;20273;-79
2023/01/01 06:01:31;;;;;;;12.38;8.25;;;;;;;;;;5017282;28;20041;-79
2023/01/01 06:03:58;;;;;;;12.02;7.18;;;;;;;;;;5004960;28;20026;-80
2023/01/01 06:06:27;;;;;;;10.35;6.60;;;;;;;;;;4997358;28;20026;-79
2023/01/01 06:08:57;;;;;;;11.38;7.20;;;;;;;;;;5012989;28;20048;-79
2023/01/01 06:11:23;;;;;;;9.27;6.88;;;;;;;;;;5005791;28;20038;-79
2023/01/01 06:13:53;;;;;;;10.75;6.43;;;;;;;;;;5005179;28;20031;-79
2023/01/01 06:16:19;;;;;;;8.98;5.97;;;;;;;;;;5012680;28;20033;-80
2023/01/01 06:18:45;;;;;;;8.15;5.88;;;;;;;;;;4999265;28;20026;-79
2023/01/01 06:21:11;;;;;;;7.80;5.43;;;;;;;;;;5013071;28;20117;-79
2023/01/01 06:23:38;;;;;;;6.88;5.57;;;;;;;;;;4993800;28;20334;-79
2023/01/01 06:26:05;;;;;;;8.15;5.28;;;;;;;;;;4997466;28;20500;-79
2023/01/01 06:28:31;;;;;;;8.90;5.03;;;;;;;;;;4998409;28;20553;-79
2023/01/01 06:31:01;;;;;;;7.18;4.60;;;;;;;;;;4997749;28;20481;-79
2023/01/01 06:33:28;;;;;;;6.03;4.05;;;;;;;;;;5010907;28;20110;-78
2023/01/01 06:35:54;;;;;;;10.10;4.93;;;;;;;;;;4996402;28;20026;-79
2023/01/01 06:38:20;;;;;;;6.18;4.13;;;;;;;;;;4997332;28;20037;-79
2023/01/01 06:41:06;;;;;;;5.60;4.10;;;;;;;;;;4996956;28;20029;-79
2023/01/01 06:43:33;;;;;;;10.02;5.00;;;;;;;;;;4995808;28;20466;-80
2023/01/01 06:46:00;;;;;;;5.68;4.05;;;;;;;;;;5008664;28;20030;-79
2023/01/01 06:48:28;;;;;;;6.28;3.63;;;;;;;;;;4999030;28;20029;-79
2023/01/01 06:50:54;;;;;;;4.72;4.00;;;;;;;;;;5005394;28;20022;-80
2023/01/01 06:53:22;;;;;;;5.82;3.92;;;;;;;;;;4996871;28;20022;-80
2023/01/01 06:55:49;;;;;;;4.38;3.30;;;;;;;;;;4996459;28;20101;-79
2023/01/01 06:58:15;;;;;;;5.15;3.70;;;;;;;;;;4997838;28;20026;-79
2023/01/01 07:00:42;;;;;;;4.18;3.17;;;;;;;;;;4998659;28;20037;-79
2023/01/01 07:03:09;;;;;;;5.03;3.47;;;;;;;;;;4998133;28;20022;-79
2023/01/01 07:05:35;;;;;;;4.25;3.25;;;;;;;;;;4997187;28;20031;-79
2023/01/01 07:08:01;;;;;;;3.63;2.70;;;;;;;;;;4996441;28;20022;-79
2023/01/01 07:10:28;;;;;;;5.45;3.70;;;;;;;;;;5000207;28;20038;-79
2023/01/01 07:12:54;;;;;;;4.30;3.38;;;;;;;;;;5015741;28;20022;-77
2023/01/01 07:15:20;;;;;;;4.80;3.30;;;;;;;;;;5015670;28;20026;-78
2023/01/01 07:17:46;;;;;;;4.10;3.15;;;;;;;;;;5016552;28;20030;-76
2023/01/01 07:20:12;;;;;;;4.30;3.33;;;;;;;;;;5012440;28;20034;-78
2023/01/01 07:22:40;;;;;;;4.30;2.63;;;;;;;;;;4996623;28;20018;-79
2023/01/01 07:25:07;;;;;;;3.60;2.88;;;;;;;;;;4995592;28;20046;-78
2023/01/01 07:27:33;;;;;;;3.42;2.90;;;;;;;;;;4996305;28;20041;-79
2023/01/01 07:29:59;;;;;;;4.40;2.78;;;;;;;;;;4996624;28;20041;-79
2023/01/01 07:32:25;;;;;;;3.80;2.60;;;;;;;;;;4995955;28;20034;-79
2023/01/01 07:34:51;;;;;;;3.83;3.00;;;;;;;;;;4995824;28;20085;-79
2023/01/01 07:37:17;;;;;;;3.65;2.65;;;;;;;;;;5005572;28;20013;-78
2023/01/01 07:39:43;;;;;;;3.40;2.60;;;;;;;;;;5019613;28;20030;-78
2023/01/01 07:42:09;;;;;;;3.28;2.47;;;;;;;;;;5019646;28;20022;-78
2023/01/01 07:44:35;;;;;;;4.63;2.85;;;;;;;;;;5001804;28;20034;-77
2023/01/01 07:47:05;;;;;;;3.55;2.58;;;;;;;;;;5007497;28;20046;-78
2023/01/01 07:49:31;;;;;;;4.53;2.75;;;;;;;;;;4995822;28;20125;-78
2023/01/01 07:51:57;;;;;;;5.25;2.42;;;;;;;;;;5005323;28;20039;-77
2023/01/01 07:54:23;;;;;;;3.17;2.63;;;;;;;;;;5002073;28;20124;-80
2023/01/01 07:56:49;;;;;;;3.28;2.80;;;;;;;;;;5000571;28;20032;-78
2023/01/01 07:59:15;;;;;;;3.58;2.60;;;;;;;;;;4996650;28;20113;-79
2023/01/01 08:01:41;;;;;;;3.92;2.67;;;;;;;;;;4994974;28;20571;-78
2023/01/01 08:04:08;;;;;;;3.10;2.40;;;;;;;;;;4996566;28;20384;-79
2023/01/01 08:06:34;;;;;;;3.35;2.47;;;;;;;;;;4995616;28;20105;-78
2023/01/01 08:09:00;;;;;;;3.28;2.50;;;;;;;;;;4996157;28;20063;-78
2023/01/01 08:11:26;;;;;;;3.58;1.92;;;;;;;;;;4998225;28;20031;-79
2023/01/01 08:13:52;;;;;;;2.40;1.88;;;;;;;;;;4995844;28;20041;-79
2023/01/01 08:16:19;;;;;;;2.55;2.30;;;;;;;;;;4996840;28;20029;-79
2023/01/01 08:18:46;;;;;;;3.17;1.90;;;;;;;;;;4996011;28;20030;-79
2023/01/01 08:21:12;;;;;;;2.70;1.70;;;;;;;;;;4997649;28;20022;-79
2023/01/01 08:23:38;;;;;;;3.28;2.45;;;;;;;;;;4992640;28;20023;-79
2023/01/01 08:26:04;;;;;;;2.40;1.83;;;;;;;;;;4989105;28;20043;-78
2023/01/01 08:28:30;;;;;;;2.30;1.70;;;;;;;;;;4987960;28;20031;-78
2023/01/01 08:30:56;;;;;;;1.92;1.70;;;;;;;;;;4989884;28;20055;-78
2023/01/01 08:33:24;;;;;;;1.95;1.45;;;;;;;;;;4985635;28;20089;-78
2023/01/01 08:35:50;;;;;;;2.05;1.77;;;;;;;;;;5007620;28;20046;-78
2023/01/01 08:38:16;;;;;;;1.60;1.42;;;;;;;;;;5006785;28;20045;-78
2023/01/01 08:40:42;;;;;;;3.25;1.60;;;;;;;;;;5009393;28;20050;-78
2023/01/01 08:43:08;;;;;;;3.05;1.60;;;;;;;;;;5006029;28;20022;-79
2023/01/01 08:45:34;;;;;;;2.15;1.70;;;;;;;;;;5004100;28;20473;-79
2023/01/01 08:48:00;;;;;;;2.38;1.73;;;;;;;;;;5006194;28;20018;-79
2023/01/01 08:50:26;;;;;;;1.70;1.48;;;;;;;;;;5008193;28;20026;-78
2023/01/01 08:52:52;;;;;;;1.55;1.23;;;;;;;;;;5007783;28;20030;-78
2023/01/01 08:55:18;;;;;;;2.38;1.67;;;;;;;;;;5008395;28;20026;-80
2023/01/01 08:57:44;;;;;;;1.77;1.42;;;;;;;;;;5012416;28;20448;-79
2023/01/01 09:00:12;;;;;;;1.80;1.15;;;;;;;;;;5010539;28;20053;-78
2023/01/01 09:02:38;;;;;;;1.92;1.55;;;;;;;;;;5010245;28;20033;-78
2023/01/01 09:05:04;;;;;;;1.77;1.52;;;;;;;;;;5001268;28;20022;-79
2023/01/01 09:07:30;;;;;;;1.80;1.33;;;;;;;;;;5000665;28;20029;-79
2023/01/01 09:09:56;;;;;;;1.73;1.45;;;;;;;;;;5001222;28;20018;-78
2023/01/01 09:12:22;;;;;;;2.08;1.33;;;;;;;;;;4998758;28;20458;-79
2023/01/01 09:14:48;;;;;;;2.78;1.27;;;;;;;;;;4999657;28;20039;-79
2023/01/01 09:17:15;;;;;;;2.22;1.67;;;;;;;;;;5002752;28;20035;-79
2023/01/01 09:19:41;;;;;;;2.13;1.35;;;;;;;;;;4999655;28;20397;-78
2023/01/01 09:22:10;;;;;;;3.95;2.60;;;;;;;;;;5000038;28;20019;-79
2023/01/01 09:24:36;;;;;;;5.45;3.42;;;;;;;;;;5001692;28;20500;-79
2023/01/01 09:27:02;;;;;;;5.80;3.88;;;;;;;;;;5000461;28;20176;-78
2023/01/01 09:29:28;;;;;;;4.60;2.83;;;;;;;;;;5007293;28;20112;-79
2023/01/01 09:31:54;;;;;;;5.07;2.92;;;;;;;;;;5005115;28;20096;-80
2023/01/01 09:34:20;;;;;;;2.92;2.45;;;;;;;;;;4999363;28;20022;-78
2023/01/01 09:36:46;;;;;;;3.80;2.55;;;;;;;;;;4999816;28;20414;-78
2023/01/01 09:39:14;;;;;;;2.60;2.35;;;;;;;;;;5000787;28;20014;-78
2023/01/01 09:41:40;;;;;;;1.75;1.60;;;;;;;;;;5001856;28;20026;-78
2023/01/01 09:44:11;;;;;;;2.10;1.70;;;;;;;;;;5002593;28;20038;-78
2023/01/01 09:46:37;;;;;;;1.40;1.30;;;;;;;;;;5001512;28;20050;-78
2023/01/01 09:49:10;;;;;;;2.45;1.77;;;;;;;;;;5003211;28;20034;-79
2023/01/01 09:51:39;;;;;;;1.98;1.52;;;;;;;;;;5002472;28;20050;-80
2023/01/01 09:54:20;;;;;;;2.45;1.80;;;;;;;;;;5001928;28;20033;-79
2023/01/01 09:56:48;;;;;;;2.13;1.58;;;;;;;;;;5002297;28;20058;-80
2023/01/01 09:59:14;;;;;;;1.85;1.33;;;;;;;;;;5003498;28;20072;-79
2023/01/01 10:01:59;;;;;;;1.70;1.30;;;;;;;;;;5001246;28;20030;-80
2023/01/01 10:04:46;;;;;;;4.43;2.30;;;;;;;;;;5027333;28;20312;-81
2023/01/01 10:07:15;;;;;;;3.08;1.88;;;;;;;;;;5020518;28;20026;-79
2023/01/01 10:09:49;;;;;;;4.10;2.33;;;;;;;;;;5022774;28;20034;-80
2023/01/01 10:12:30;;;;;;;3.80;2.17;;;;;;;;;;5024651;28;20033;-79
2023/01/01 10:15:01;;;;;;;2.00;1.83;;;;;;;;;;5024228;28;20038;-79
2023/01/01 10:17:33;;;;;;;2.53;1.77;;;;;;;;;;5023808;28;20022;-79
2023/01/01 10:20:02;;;;;;;2.47;2.00;;;;;;;;;;5006498;28;20046;-80
2023/01/01 10:22:48;;;;;;;3.35;1.80;;;;;;;;;;5001687;28;20077;-79
2023/01/01 10:25:18;;;;;;;3.05;1.90;;;;;;;;;;4982019;28;20026;-80
2023/01/01 10:27:50;;;;;;;2.50;1.58;;;;;;;;;;4986739;28;20034;-81
2023/01/01 10:30:18;;;;;;;2.72;2.50;;;;;;;;;;5001406;28;20034;-79
2023/01/01 10:32:46;;;;;;;2.15;1.58;;;;;;;;;;5000513;28;20035;-80
2023/01/01 10:35:14;;;;;;;2.47;1.90;;;;;;;;;;5000768;28;20031;-80
2023/01/01 10:37:40;;;;;;;2.65;1.98;;;;;;;;;;5001604;28;20023;-79
2023/01/01 10:40:13;;;;;;;1.70;1.60;;;;;;;;;;5002022;28;20058;-80
2023/01/01 10:42:39;;;;;;;1.30;1.20;;;;;;;;;;5003435;28;20024;-80
2023/01/01 10:45:06;;;;;;;2.15;1.90;;;;;;;;;;5001893;28;20027;-80
2023/01/01 10:47:32;;;;;;;2.13;1.67;;;;;;;;;;5004094;28;20022;-79
2023/01/01 10:49:59;;;;;;;2.00;1.70;;;;;;;;;;5002927;28;20034;-80
2023/01/01 10:52:30;;;;;;;1.73;1.42;;;;;;;;;;5017487;28;20026;-79
2023/01/01 10:54:56;;;;;;;2.03;1.55;;;;;;;;;;5003489;28;20030;-80
2023/01/01 10:57:39;;;;;;;1.60;1.50;;;;;;;;;;5007057;28;20054;-81
2023/01/01 11:00:21;;;;;;;1.35;1.23;;;;;;;;;;5010558;28;20030;-80
2023/01/01 11:02:47;;;;;;;2.35;1.30;;;;;;;;;;5002592;28;20037;-81
2023/01/01 11:05:20;;;;;;;1.63;1.50;;;;;;;;;;5000056;28;20038;-81
2023/01/01 11:07:47;;;;;;;2.25;1.70;;;;;;;;;;5008036;28;20026;-80
2023/01/01 11:10:20;;;;;;;2.13;1.65;;;;;;;;;;5004041;28;20026;-82
2023/01/01 11:12:46;;;;;;;1.30;1.20;;;;;;;;;;5002367;28;20034;-81
2023/01/01 11:15:30;;;;;;;2.30;1.38;;;;;;;;;;5000449;28;20031;-82
2023/01/01 11:18:06;;;;;;;1.55;1.45;;;;;;;;;;5001255;28;20026;-80
2023/01/01 11:20:35;;;;;;;1.60;1.42;;;;;;;;;;5002674;28;20040;-80
2023/01/01 11:23:17;;;;;;;1.63;1.23;;;;;;;;;;5002601;28;20014;-80
2023/01/01 11:25:56;;;;;;;2.03;1.83;;;;;;;;;;4999195;28;20122;-80
2023/01/01 11:28:22;;;;;;;1.98;1.70;;;;;;;;;;5002678;28;20027;-81
2023/01/01 11:30:59;;;;;;;1.23;1.13;;;;;;;;;;4996897;28;20065;-81
2023/01/01 11:33:26;;;;;;;1.80;1.45;;;;;;;;;;4983061;28;20034;-81
2023/01/01 11:35:54;;;;;;;1.70;1.45;;;;;;;;;;4992164;28;20046;-81
2023/01/01 11:38:22;;;;;;;2.00;1.40;;;;;;;;;;5008455;28;20025;-79
2023/01/01 11:40:51;;;;;;;3.47;1.70;;;;;;;;;;5008715;28;20113;-81
2023/01/01 11:43:27;;;;;;;2.72;1.60;;;;;;;;;;5008269;28;20031;-81
2023/01/01 11:45:57;;;;;;;3.10;1.90;;;;;;;;;;5008247;28;20548;-80
2023/01/01 11:48:29;;;;;;;2.00;1.67;;;;;;;;;;5010984;28;20425;-81
2023/01/01 11:50:56;;;;;;;1.37;1.20;;;;;;;;;;5006792;28;20465;-79
2023/01/01 11:53:23;;;;;;;1.60;1.50;;;;;;;;;;4999858;28;20272;-82
2023/01/01 11:55:52;;;;;;;1.45;1.33;;;;;;;;;;5015084;28;20029;-82
2023/01/01 11:58:22;;;;;;;1.50;1.40;;;;;;;;;;5015683;28;20118;-82
2023/01/01 12:00:50;;;;;;;1.45;1.35;;;;;;;;;;4998969;28;20026;-82
2023/01/01 12:03:22;;;;;;;3.53;1.45;;;;;;;;;;4996755;28;20027;-81
2023/01/01 12:05:55;;;;;;;1.95;1.38;;;;;;;;;;4997516;28;20027;-80
2023/01/01 12:08:50;;;;;;;1.40;1.30;;;;;;;;;;4997563;28;20022;-80
2023/01/01 12:11:23;;;;;;;1.70;1.60;;;;;;;;;;4980160;28;20067;-81
2023/01/01 12:13:49;;;;;;;;;;;;;;;;;;4999528;28;20022;-80
2023/01/01 12:16:36;;;;;;;2.45;1.63;;;;;;;;;;5011690;28;19914;-80
2023/01/01 12:19:05;;;;;;;1.30;1.15;;;;;;;;;;4993237;28;20049;-80
2023/01/01 12:21:33;;;;;;;1.92;1.60;;;;;;;;;;4995761;28;20031;-80
2023/01/01 12:23:59;;;;;;;1.77;1.67;;;;;;;;;;4994638;28;20492;-80
2023/01/01 12:26:46;;;;;;;1.92;1.40;;;;;;;;;;4995368;28;20066;-80
2023/01/01 12:29:31;;;;;;;3.33;1.50;;;;;;;;;;4995938;28;20063;-79
2023/01/01 12:32:26;;;;;;;1.80;1.63;;;;;;;;;;4995503;28;20127;-80
2023/01/01 12:34:52;;;;;;;2.13;1.80;;;;;;;;;;4982196;28;20042;-80
2023/01/01 12:37:37;;;;;;;1.98;1.65;;;;;;;;;;4994052;28;20456;-80
2023/01/01 12:40:03;;;;;;;3.10;1.38;;;;;;;;;;4995600;28;20122;-80
2023/01/01 12:42:55;;;;;;;1.70;1.60;;;;;;;;;;4996255;28;20509;-80
2023/01/01 12:45:39;;;;;;;1.33;1.20;;;;;;;;;;4996641;28;20114;-80
2023/01/01 12:48:24;;;;;;;2.05;1.30;;;;;;;;;;4995378;28;20344;-80
2023/01/01 12:51:08;;;;;;;1.83;1.40;;;;;;;;;;4987255;28;20121;-80
2023/01/01 12:53:40;;;;;;;1.92;1.70;;;;;;;;;;4980380;28;20031;-81
2023/01/01 12:56:23;;;;;;;1.50;1.40;;;;;;;;;;4980259;28;20054;-79
2023/01/01 12:58:57;;;;;;;2.47;2.28;;;;;;;;;;5001164;28;20380;-82
2023/01/01 13:01:31;;;;;;;1.52;1.20;;;;;;;;;;5004613;28;20026;-81
2023/01/01 13:04:01;;;;;;;2.92;1.70;;;;;;;;;;5006290;28;20026;-79
2023/01/01 13:06:33;;;;;;;1.45;1.27;;;;;;;;;;5002125;28;20041;-79
2023/01/01 13:09:03;;;;;;;2.00;1.25;;;;;;;;;;5003209;28;20043;-79
2023/01/01 13:11:30;;;;;;;1.35;1.25;;;;;;;;;;5001807;28;20031;-80
2023/01/01 13:13:56;;;;;;;1.30;1.20;;;;;;;;;;5011779;28;20030;-80
2023/01/01 13:16:32;;;;;;;1.50;1.30;;;;;;;;;;5010311;28;20014;-80
2023/01/01 13:18:58;;;;;;;1.60;1.30;;;;;;;;;;4999247;28;20034;-80
2023/01/01 13:21:26;;;;;;;1.70;1.33;;;;;;;;;;4998597;28;20025;-80
2023/01/01 13:23:53;;;;;;;1.65;1.27;;;;;;;;;;4992153;28;20077;-80
2023/01/01 13:26:20;;;;;;;1.60;1.42;;;;;;;;;;4997433;28;20117;-80
2023/01/01 13:28:58;;;;;;;2.50;1.38;;;;;;;;;;5001336;28;20049;-80
2023/01/01 13:31:42;;;;;;;1.92;1.05;;;;;;;;;;4998954;28;20512;-81
2023/01/01 13:34:27;;;;;;;1.48;1.27;;;;;;;;;;5001630;28;20085;-79
2023/01/01 13:37:16;;;;;;;1.65;1.23;;;;;;;;;;5017726;28;20403;-80
2023/01/01 13:39:57;;;;;;;1.63;1.42;;;;;;;;;;5016559;28;20065;-80
2023/01/01 13:42:42;;;;;;;1.35;1.02;;;;;;;;;;5017932;28;20469;-80
2023/01/01 13:45:15;;;;;;;1.60;1.13;;;;;;;;;;5010738;28;20041;-81
2023/01/01 13:47:50;;;;;;;1.83;1.48;;;;;;;;;;5000219;28;20018;-81
2023/01/01 13:50:31;;;;;;;2.25;1.35;;;;;;;;;;5011745;28;20069;-81
2023/01/01 13:53:10;;;;;;;1.47;1.30;;;;;;;;;;4999498;28;20033;-81
2023/01/01 13:56:08;;;;;;;1.80;1.40;;;;;;;;;;4998861;28;20405;-80
2023/01/01 13:58:42;;;;;;;1.75;1.13;;;;;;;;;;4953881;28;20056;-80
2023/01/01 14:01:26;;;;;;;13.48;7.78;;;;;;;;;;4988634;28;20018;-82
2023/01/01 14:03:54;;;;;;;16.38;7.78;;;;;;;;;;5000699;28;20084;-80
2023/01/01 14:06:29;;;;;;;9.35;6.35;;;;;;;;;;5003387;28;20022;-80
2023/01/01 14:09:21;;;;;;;8.98;4.85;;;;;;;;;;5003276;28;20026;-80
2023/01/01 14:11:48;;;;;;;5.22;2.80;;;;;;;;;;5005949;28;20046;-80
2023/01/01 14:14:24;;;;;;;2.72;2.10;;;;;;;;;;5003029;28;20027;-80
2023/01/01 14:17:00;;;;;;;3.45;2.05;;;;;;;;;;5005481;28;20064;-80
2023/01/01 14:19:27;;;;;;;2.65;2.10;;;;;;;;;;5003947;28;20030;-80
2023/01/01 14:21:53;;;;;;;3.42;2.08;;;;;;;;;;5002067;28;20077;-80
2023/01/01 14:24:21;;;;;;;2.35;1.55;;;;;;;;;;5008063;28;20018;-80
2023/01/01 14:26:49;;;;;;;2.72;2.03;;;;;;;;;;5020719;28;20117;-80
2023/01/01 14:29:34;;;;;;;3.42;2.35;;;;;;;;;;5013232;28;20033;-80
2023/01/01 14:32:11;;;;;;;4.40;2.20;;;;;;;;;;4999484;28;20058;-80
2023/01/01 14:34:37;;;;;;;1.55;1.45;;;;;;;;;;4994477;28;20053;-80
2023/01/01 14:37:05;;;;;;;2.35;1.65;;;;;;;;;;5013792;28;20022;-80
2023/01/01 14:39:35;;;;;;;2.25;1.65;;;;;;;;;;5012281;28;20022;-80
2023/01/01 14:42:06;;;;;;;1.75;1.40;;;;;;;;;;5019028;28;20105;-81
2023/01/01 14:44:35;;;;;;;1.73;1.30;;;;;;;;;;5001755;28;20423;-80
2023/01/01 14:47:03;;;;;;;2.35;1.58;;;;;;;;;;5012477;28;20046;-80
2023/01/01 14:49:32;;;;;;;2.25;1.10;;;;;;;;;;5012688;28;20023;-80
2023/01/01 14:52:03;;;;;;;5.18;1.50;;;;;;;;;;5002875;28;20030;-81
2023/01/01 14:54:31;;;;;;;2.15;1.58;;;;;;;;;;4997729;28;20051;-80
2023/01/01 14:56:57;;;;;;;1.60;1.42;;;;;;;;;;5003140;28;20022;-81